Impacts TAF Board
For situational awareness. Not to be used for flight planning purposes.
IDs:

KGJT - Grand Junction Rgnl, CO, US

Issued at 1743 UTC 31 Jul 2021
Updated at 1903 UTC 31 Jul 2021
Potential Impact None Slight Moderate High
Time<<01/08Z 01/09Z 01/10Z 01/11Z 01/12Z 01/13Z 01/14Z 01/15Z 01/16Z 01/17Z 01/18Z 01/19Z 01/20Z>>
Type PRVL PRVL PRVL PRVL PRVL PRVL PRVL PRVL PRVL PRVL
VIS >6 >6 >6 >6 >6 >6 >6 >6 >6 >6
CIG 100 100 100 100 120 120 120 120 120 120
Cover BKN BKN BKN BKN BKN BKN BKN BKN BKN BKN
FltCat VFR VFR VFR VFR VFR VFR VFR VFR VFR VFR
WX -- -- -- -- -- -- -- -- -- --
WDir 90 90 90 90 120 120 120 120 120 120
WSpd 10 10 10 10 8 8 8 8 8 8
WGst -- -- -- -- -- -- -- -- -- --
Raw TAF
KGJT 311743Z 3118/0118 12005KT P6SM BKN150
  FM311900 21008KT P6SM FEW100 SCT150
  FM312100 25010KT P6SM VCTS SCT080CB BKN120
  FM010100 13012G25KT P6SM VCTS SCT080CB BKN100
  FM010500 09010KT P6SM SCT070 BKN100
  FM011200 12008KT P6SM BKN120


METAR Board
Radar Display
Forecast Discussion
For situational awareness. Not to be used for flight planning purposes.